Weather - Helsinki Query any day in the database

Current weather  

Weather data for a selected day (2006-01-01 -2020-12-04)
Enter date:     <-     scroll days         ->
day curves
Low temperature°C -12.020:50
High temperature°C -8.016:50
Low wind chill°C -18.607:20
Average temperature°C -9.8 
High wind speed (10 min) m/s 6.709:50
Low pressurehPa 1016.023:50
High pressurehPa 1039.000:50
Low R.H% 7807:50
High R.H% 9223:50
High precipitation (1h)mm 0.611:50
Total precipitation of the daymm 1.9 
Day weather data as a table
Date Time Temp
°C
Chill
°C
Pressure
hPA
Wind
m/s
Hum
%
Precip
mm
2016-01-03 23:50:00 -10.0  -17.0  1016.0 4.5 92 0.1
2016-01-03 23:20:00 -10.0  -16.6  1017.0 4.0 85 -
2016-01-03 22:50:00 -10.0  -16.6  1017.0 4.0 92 -
2016-01-03 22:20:00 -11.0  -17.4  1017.0 3.6 92 -
2016-01-03 21:50:00 -10.0  -16.2  1017.0 3.6 85 -
2016-01-03 21:20:00 -11.0  -16.4  1017.0 2.7 92 -
2016-01-03 20:50:00 -12.0  -16.8  1017.0 2.2 85 -
2016-01-03 20:20:00 -11.0  -13.9  1017.0 1.3 92 -
2016-01-03 19:50:00 -10.0  -15.2  1017.0 2.7 85 -
2016-01-03 19:20:00 -9.0  -14.0  1018.0 2.7 85 -
2016-01-03 18:50:00 -9.0  -14.0  1018.0 2.7 85 -
2016-01-03 18:20:00 -9.0  -14.0  1018.0 2.7 92 -
2016-01-03 17:50:00 -9.0  -14.0  1019.0 2.7 85 -
2016-01-03 17:20:00 -9.0  -13.3  1019.0 2.2 92 -
2016-01-03 16:50:00 -8.0  -10.5  1019.0 1.3 85 -
2016-01-03 16:20:00 -8.0  -12.1  1019.0 2.2 85 -
2016-01-03 15:50:00 -8.0  -12.8  1019.0 2.7 85 -
2016-01-03 15:20:00 -8.0  -13.2  1020.0 3.1 85 -
2016-01-03 14:50:00 -8.0  -13.2  1020.0 3.1 85 -
2016-01-03 14:20:00 -8.0  -13.8  1021.0 3.6 85 -
2016-01-03 13:50:00 -9.0  -15.0  1021.0 3.6 92 -
2016-01-03 13:20:00 -8.0  -14.6  1021.0 4.5 85 -
2016-01-03 12:50:00 -9.0  -16.5  1022.0 5.4 92 0.1
2016-01-03 12:20:00 -9.0  -16.5  1022.0 5.4 92 -
2016-01-03 11:50:00 -9.0  -16.5  1023.0 5.4 85 0.6
2016-01-03 11:20:00 -9.0  -16.5  1023.0 5.4 85 -
2016-01-03 10:50:00 -9.0  -16.8  1024.0 5.8 85 0.6
2016-01-03 10:20:00 -9.0  -17.1  1024.0 6.3 92 -
2016-01-03 09:50:00 -9.0  -17.3  1025.0 6.7 85 0.5
2016-01-03 09:20:00 -9.0  -17.1  1025.0 6.3 78 -
2016-01-03 08:50:00 -9.0  -16.5  1026.0 5.4 78 -
2016-01-03 08:20:00 -9.0  -17.1  1027.0 6.3 78 -
2016-01-03 07:50:00 -9.0  -16.8  1028.0 5.8 78 -
2016-01-03 07:20:00 -10.0  -18.6  1028.0 6.7 85 -
2016-01-03 06:50:00 -10.0  -18.6  1029.0 6.7 92 -
2016-01-03 06:20:00 -10.0  -18.0  1030.0 5.8 92 -
2016-01-03 05:50:00 -10.0  -17.7  1031.0 5.4 85 -
2016-01-03 05:20:00 -10.0  -18.4  1032.0 6.3 85 -
2016-01-03 04:50:00 -10.0  -18.0  1033.0 5.8 85 -
2016-01-03 04:20:00 -11.0  -18.3  1034.0 4.5 92 -
2016-01-03 03:50:00 -11.0  -18.3  1035.0 4.5 85 -
2016-01-03 03:20:00 -11.0  -17.8  1035.0 4.0 85 -
2016-01-03 02:50:00 -11.0  -17.4  1036.0 3.6 85 -
2016-01-03 02:20:00 -12.0  -18.1  1037.0 3.1 92 -
2016-01-03 01:50:00 -12.0  -17.5  1037.0 2.7 85 -
2016-01-03 01:20:00 -12.0  -16.8  1038.0 2.2 85 -
2016-01-03 00:50:00 -12.0  -18.1  1039.0 3.1 85 -
2016-01-03 00:20:00 -12.0  -18.1  1039.0 3.1 85 -
Unit conversions: